createdAt,value
2023-05-12T00:01:08.657Z,12.60
2023-05-12T00:03:36.484Z,12.60
2023-05-12T00:06:04.406Z,12.59
2023-05-12T00:08:31.658Z,12.57
2023-05-12T00:10:59.057Z,12.57
2023-05-12T00:13:28.669Z,12.53
2023-05-12T00:15:58.739Z,12.54
2023-05-12T00:18:28.228Z,12.49
2023-05-12T00:20:56.052Z,12.51
2023-05-12T00:23:23.523Z,12.40
2023-05-12T00:25:51.017Z,12.44
2023-05-12T00:28:19.178Z,12.48
2023-05-12T00:30:46.390Z,12.50
2023-05-12T00:33:13.616Z,12.48
2023-05-12T00:35:40.808Z,12.49
2023-05-12T00:38:08.020Z,12.55
2023-05-12T00:40:35.207Z,12.60
2023-05-12T00:43:02.465Z,12.60
2023-05-12T00:45:30.635Z,12.53
2023-05-12T00:47:58.690Z,12.44
2023-05-12T00:50:26.278Z,12.36
2023-05-12T00:52:53.601Z,12.27
2023-05-12T00:55:21.033Z,12.26
2023-05-12T00:57:48.280Z,12.29
2023-05-12T01:00:18.108Z,12.29
2023-05-12T01:02:49.706Z,12.22
2023-05-12T01:05:17.308Z,12.23
2023-05-12T01:07:47.808Z,12.19
2023-05-12T01:10:22.474Z,12.27
2023-05-12T01:12:50.671Z,12.22
2023-05-12T01:15:19.216Z,12.21
2023-05-12T01:17:58.524Z,12.17
2023-05-12T01:20:28.833Z,12.17
2023-05-12T01:22:59.107Z,12.15
2023-05-12T01:25:33.350Z,12.02
2023-05-12T01:28:04.265Z,11.97
2023-05-12T01:30:32.951Z,12.04
2023-05-12T01:33:00.644Z,12.17
2023-05-12T01:35:28.501Z,12.20
2023-05-12T01:38:00.560Z,11.98
2023-05-12T01:40:27.977Z,11.79
2023-05-12T01:42:56.927Z,11.80
2023-05-12T01:45:25.348Z,11.93
2023-05-12T01:47:53.602Z,11.76
2023-05-12T01:50:21.282Z,11.66
2023-05-12T01:52:49.126Z,11.84
2023-05-12T01:55:18.285Z,11.82
2023-05-12T01:57:58.247Z,11.74
2023-05-12T02:00:32.214Z,11.79
2023-05-12T02:03:01.011Z,11.73
2023-05-12T02:05:28.485Z,11.63
2023-05-12T02:07:56.855Z,11.56
2023-05-12T02:10:23.913Z,11.59
2023-05-12T02:12:51.183Z,11.57
2023-05-12T02:15:18.459Z,11.61
2023-05-12T02:17:51.326Z,11.72
2023-05-12T02:20:18.890Z,11.71
2023-05-12T02:22:46.371Z,11.77
2023-05-12T02:25:16.568Z,11.78
2023-05-12T02:27:45.032Z,11.78
2023-05-12T02:30:12.756Z,11.79
2023-05-12T02:32:40.032Z,11.78
2023-05-12T02:35:11.135Z,11.69
2023-05-12T02:37:39.424Z,11.68
2023-05-12T02:40:08.218Z,11.76
2023-05-12T02:42:38.240Z,11.80
2023-05-12T02:45:06.618Z,11.77
2023-05-12T02:47:34.465Z,11.79
2023-05-12T02:50:02.356Z,11.80
2023-05-12T02:52:29.622Z,11.77
2023-05-12T02:54:56.951Z,11.82
2023-05-12T02:57:24.165Z,11.83
2023-05-12T02:59:51.361Z,11.70
2023-05-12T03:02:18.880Z,11.74
2023-05-12T03:04:46.137Z,11.86
2023-05-12T03:07:13.366Z,11.91
2023-05-12T03:09:40.716Z,11.72
2023-05-12T03:12:08.562Z,11.66
2023-05-12T03:14:37.931Z,11.67
2023-05-12T03:17:05.227Z,11.78
2023-05-12T03:19:32.629Z,11.83
2023-05-12T03:21:59.942Z,11.86
2023-05-12T03:24:27.513Z,11.84
2023-05-12T03:26:57.232Z,11.80
2023-05-12T03:29:24.668Z,11.80
2023-05-12T03:31:52.175Z,11.79
2023-05-12T03:34:19.742Z,11.81
2023-05-12T03:36:46.971Z,11.83
2023-05-12T03:39:14.119Z,11.77
2023-05-12T03:41:41.488Z,11.63
2023-05-12T03:44:08.767Z,11.69
2023-05-12T03:46:36.092Z,11.68
2023-05-12T03:49:03.337Z,11.69
2023-05-12T03:51:31.581Z,11.66
2023-05-12T03:53:58.751Z,11.65
2023-05-12T03:56:27.815Z,11.73
2023-05-12T03:58:55.199Z,11.76
2023-05-12T04:01:27.524Z,11.79
2023-05-12T04:03:54.836Z,11.81
2023-05-12T04:06:22.073Z,11.81
2023-05-12T04:08:49.304Z,11.78
2023-05-12T04:11:18.904Z,11.82
2023-05-12T04:13:48.426Z,11.80
2023-05-12T04:16:16.128Z,11.77
2023-05-12T04:18:45.718Z,11.65
2023-05-12T04:21:15.235Z,11.70
2023-05-12T04:23:43.516Z,11.77
2023-05-12T04:26:10.750Z,11.76
2023-05-12T04:28:38.313Z,11.77
2023-05-12T04:31:05.640Z,11.80
2023-05-12T04:33:33.998Z,11.78
2023-05-12T04:36:01.695Z,11.80
2023-05-12T04:38:29.060Z,11.81
2023-05-12T04:41:00.931Z,11.86
2023-05-12T04:46:00.225Z,11.67
2023-05-12T04:48:29.236Z,11.66
2023-05-12T04:51:00.369Z,11.63
2023-05-12T04:53:28.158Z,11.71
2023-05-12T04:55:56.595Z,11.77
2023-05-12T04:58:26.764Z,11.80
2023-05-12T05:00:54.203Z,11.83
2023-05-12T05:03:21.543Z,11.89
2023-05-12T05:05:49.217Z,11.94
2023-05-12T05:08:17.090Z,11.95
2023-05-12T05:10:44.358Z,12.01
2023-05-12T05:13:17.294Z,12.02
2023-05-12T05:15:55.463Z,11.99
2023-05-12T05:18:25.889Z,12.03
2023-05-12T05:20:58.575Z,12.04
2023-05-12T05:23:26.692Z,11.94
2023-05-12T05:25:54.121Z,11.98
2023-05-12T05:28:21.464Z,11.79
2023-05-12T05:30:48.708Z,11.76
2023-05-12T05:33:18.315Z,11.88
2023-05-12T05:35:47.982Z,12.03
2023-05-12T05:38:17.834Z,12.14
2023-05-12T05:40:52.968Z,12.23
2023-05-12T05:43:21.425Z,12.30
2023-05-12T05:45:49.986Z,12.33
2023-05-12T05:48:17.958Z,12.38
2023-05-12T05:50:45.827Z,12.44
2023-05-12T05:53:13.142Z,12.23
2023-05-12T05:55:40.791Z,12.34
2023-05-12T05:58:08.628Z,12.44
2023-05-12T06:00:36.043Z,12.47
2023-05-12T06:03:03.853Z,12.55
2023-05-12T06:05:31.436Z,12.54
2023-05-12T06:07:58.692Z,12.58
2023-05-12T06:10:26.508Z,12.55
2023-05-12T06:12:55.190Z,12.58
2023-05-12T06:15:22.883Z,12.55
2023-05-12T06:17:50.375Z,12.55
2023-05-12T06:20:19.998Z,12.62
2023-05-12T06:22:47.261Z,12.67
2023-05-12T06:25:14.627Z,12.65
2023-05-12T06:27:41.764Z,12.63
2023-05-12T06:30:10.411Z,12.59
2023-05-12T06:32:37.954Z,12.59
2023-05-12T06:35:06.814Z,12.48
2023-05-12T06:37:34.147Z,12.63
2023-05-12T06:40:01.371Z,12.72
2023-05-12T06:42:28.528Z,12.69
2023-05-12T06:44:56.799Z,12.65
2023-05-12T06:47:24.026Z,12.86
2023-05-12T06:49:51.449Z,12.98
2023-05-12T06:52:20.554Z,12.98
2023-05-12T06:54:47.850Z,13.14
2023-05-12T06:57:15.004Z,13.16
2023-05-12T06:59:43.324Z,13.35
2023-05-12T07:02:15.181Z,13.49
2023-05-12T07:04:42.540Z,13.42
2023-05-12T07:07:09.750Z,13.57
2023-05-12T07:09:36.993Z,13.52
2023-05-12T07:12:05.348Z,13.06
2023-05-12T07:14:32.493Z,13.05
2023-05-12T07:16:59.686Z,13.30
2023-05-12T07:19:27.093Z,13.71
2023-05-12T07:21:54.596Z,13.92
2023-05-12T07:24:21.932Z,13.96
2023-05-12T07:26:49.146Z,14.05
2023-05-12T07:29:16.303Z,13.82
2023-05-12T07:31:43.844Z,14.01
2023-05-12T07:34:11.006Z,14.21
2023-05-12T07:36:38.205Z,14.11
2023-05-12T07:39:05.909Z,14.21
2023-05-12T07:41:34.610Z,13.88
2023-05-12T07:44:02.621Z,13.93
2023-05-12T07:46:29.851Z,14.08
2023-05-12T07:48:57.335Z,14.42
2023-05-12T07:51:24.626Z,14.54
2023-05-12T07:53:51.816Z,13.98
2023-05-12T07:56:18.938Z,14.32
2023-05-12T07:58:47.497Z,14.53
2023-05-12T08:01:15.142Z,14.62
2023-05-12T08:03:42.428Z,14.57
2023-05-12T08:06:10.546Z,14.43
2023-05-12T08:08:37.946Z,14.30
2023-05-12T08:11:05.751Z,14.31
2023-05-12T08:13:32.961Z,14.53
2023-05-12T08:16:00.131Z,14.55
2023-05-12T08:18:27.357Z,14.78
2023-05-12T08:20:55.108Z,14.58
2023-05-12T08:23:22.254Z,15.01
2023-05-12T08:25:50.471Z,15.16
2023-05-12T08:28:17.667Z,15.45
2023-05-12T08:30:45.492Z,15.58
2023-05-12T08:33:13.033Z,15.95
2023-05-12T08:35:40.281Z,15.88
2023-05-12T08:38:07.713Z,15.71
2023-05-12T08:40:54.423Z,15.92
2023-05-12T08:43:42.981Z,16.31
2023-05-12T08:46:11.304Z,16.44
2023-05-12T08:48:40.055Z,16.24
2023-05-12T08:51:13.016Z,16.05
2023-05-12T08:53:42.591Z,16.16
2023-05-12T08:58:45.688Z,15.83
2023-05-12T09:01:14.721Z,15.84
2023-05-12T09:03:42.465Z,15.88
2023-05-12T09:06:13.276Z,15.89
2023-05-12T09:08:41.160Z,15.88
2023-05-12T09:11:13.312Z,16.18
2023-05-12T09:14:10.390Z,16.76
2023-05-12T09:16:46.579Z,15.94
2023-05-12T09:19:19.652Z,15.02
2023-05-12T09:21:50.134Z,15.11
2023-05-12T09:24:17.394Z,16.11
2023-05-12T09:26:52.288Z,16.85
2023-05-12T09:29:29.957Z,15.93
2023-05-12T09:32:02.225Z,15.39
2023-05-12T09:34:41.019Z,15.68
2023-05-12T09:37:08.896Z,15.97
2023-05-12T09:39:36.972Z,15.93
2023-05-12T09:42:10.903Z,15.34
2023-05-12T09:44:40.699Z,15.91
2023-05-12T09:47:20.647Z,16.97
2023-05-12T09:49:52.842Z,17.03
2023-05-12T09:52:22.557Z,17.01
2023-05-12T09:54:52.543Z,16.04
2023-05-12T09:57:22.957Z,16.39
2023-05-12T09:59:52.424Z,17.49
2023-05-12T10:02:22.232Z,17.84
2023-05-12T10:05:03.636Z,18.01
2023-05-12T10:07:31.846Z,18.10
2023-05-12T10:10:05.428Z,17.65
2023-05-12T10:12:32.790Z,16.92
2023-05-12T10:15:00.324Z,17.22
2023-05-12T10:17:28.173Z,17.11
2023-05-12T10:19:56.595Z,17.52
2023-05-12T10:22:26.593Z,17.61
2023-05-12T10:24:55.937Z,17.23
2023-05-12T10:27:23.785Z,17.28
2023-05-12T10:29:53.550Z,17.53
2023-05-12T10:32:20.935Z,17.55
2023-05-12T10:34:48.215Z,17.32
2023-05-12T10:37:15.454Z,17.30
2023-05-12T10:39:52.160Z,17.12
2023-05-12T10:42:25.571Z,16.37
2023-05-12T10:44:55.100Z,16.44
2023-05-12T10:47:41.578Z,16.69
2023-05-12T10:50:10.706Z,16.74
2023-05-12T10:52:37.900Z,16.71
2023-05-12T10:55:14.378Z,16.35
2023-05-12T10:57:52.072Z,16.41
2023-05-12T11:00:27.174Z,16.33
2023-05-12T11:02:58.081Z,16.42
2023-05-12T11:05:36.401Z,16.33
2023-05-12T11:08:04.788Z,16.24
2023-05-12T11:10:33.646Z,16.18
2023-05-12T11:13:02.436Z,16.26
2023-05-12T11:15:31.325Z,16.28
2023-05-12T11:18:02.457Z,16.20
2023-05-12T11:20:31.020Z,16.02
2023-05-12T11:22:58.429Z,16.11
2023-05-12T11:25:30.242Z,15.89
2023-05-12T11:27:57.716Z,15.94
2023-05-12T11:30:25.287Z,15.77
2023-05-12T11:33:03.783Z,16.00
2023-05-12T11:35:32.444Z,16.71
2023-05-12T11:38:02.964Z,17.90
2023-05-12T11:40:30.496Z,16.15
2023-05-12T11:42:59.884Z,16.20
2023-05-12T11:45:30.606Z,15.85
2023-05-12T11:48:14.871Z,16.04
2023-05-12T11:50:49.547Z,16.09
2023-05-12T11:53:19.174Z,16.23
2023-05-12T11:55:55.805Z,16.24
2023-05-12T11:58:27.183Z,16.20
2023-05-12T12:00:55.298Z,15.84
2023-05-12T12:03:23.329Z,15.83
2023-05-12T12:06:10.708Z,15.67
2023-05-12T12:08:40.548Z,15.33
2023-05-12T12:11:07.832Z,15.09
2023-05-12T12:13:35.035Z,14.70
2023-05-12T12:16:02.250Z,14.06
2023-05-12T12:18:29.508Z,13.71
2023-05-12T12:20:56.718Z,13.28
2023-05-12T12:23:26.334Z,13.18
2023-05-12T12:25:53.514Z,12.91
2023-05-12T12:28:20.952Z,12.67
2023-05-12T12:30:48.213Z,12.51
2023-05-12T12:33:16.167Z,12.53
2023-05-12T12:35:44.569Z,12.49
2023-05-12T12:38:14.026Z,12.66
2023-05-12T12:40:41.494Z,12.38
2023-05-12T12:43:09.712Z,12.27
2023-05-12T12:45:37.123Z,12.38
2023-05-12T12:48:06.561Z,12.92
2023-05-12T12:50:36.757Z,12.81
2023-05-12T12:53:03.956Z,12.75
2023-05-12T12:55:32.860Z,12.96
2023-05-12T12:58:02.674Z,12.63
2023-05-12T13:00:29.870Z,12.40
2023-05-12T13:02:58.479Z,12.34
2023-05-12T13:05:25.884Z,12.31
2023-05-12T13:07:53.612Z,12.25
2023-05-12T13:10:21.066Z,12.05
2023-05-12T13:12:48.300Z,11.95
2023-05-12T13:15:17.966Z,11.91
2023-05-12T13:17:47.035Z,11.99
2023-05-12T13:20:20.253Z,12.18
2023-05-12T13:22:49.204Z,12.53
2023-05-12T13:25:17.322Z,12.53
2023-05-12T13:27:45.737Z,12.85
2023-05-12T13:30:14.021Z,13.18
2023-05-12T13:32:49.061Z,13.52
2023-05-12T13:35:16.551Z,13.97
2023-05-12T13:37:43.747Z,14.47
2023-05-12T13:40:11.626Z,14.99
2023-05-12T13:42:38.786Z,15.31
2023-05-12T13:45:07.183Z,15.75
2023-05-12T13:47:34.261Z,16.55
2023-05-12T13:50:01.432Z,16.81
2023-05-12T13:52:29.106Z,17.09
2023-05-12T13:54:56.258Z,16.97
2023-05-12T13:57:23.446Z,16.70
2023-05-12T13:59:52.016Z,16.27
2023-05-12T14:02:19.242Z,16.05
2023-05-12T14:04:46.619Z,15.96
2023-05-12T14:07:13.947Z,15.47
2023-05-12T14:09:41.474Z,15.30
2023-05-12T14:12:09.157Z,15.54
2023-05-12T14:14:36.814Z,15.08
2023-05-12T14:17:04.081Z,14.96
2023-05-12T14:19:31.241Z,14.71
2023-05-12T14:21:58.450Z,14.57
2023-05-12T14:24:25.875Z,14.37
2023-05-12T14:26:57.464Z,14.37
2023-05-12T14:29:24.729Z,14.45
2023-05-12T14:31:54.127Z,14.50
2023-05-12T14:34:21.330Z,14.46
2023-05-12T14:36:49.127Z,14.40
2023-05-12T14:39:16.569Z,14.29
2023-05-12T14:41:43.840Z,14.21
2023-05-12T14:44:14.818Z,14.15
2023-05-12T14:46:56.091Z,14.15
2023-05-12T14:49:24.217Z,14.16
2023-05-12T14:51:56.133Z,14.19
2023-05-12T15:16:55.759Z,14.30
2023-05-12T15:19:23.481Z,14.33
2023-05-12T15:28:44.725Z,14.37
2023-05-12T15:42:30.055Z,13.93
2023-05-12T15:45:17.601Z,13.89
2023-05-12T15:48:52.557Z,13.85
2023-05-12T15:51:28.747Z,13.81
2023-05-12T15:54:20.975Z,13.76
2023-05-12T15:56:52.172Z,13.70
2023-05-12T16:00:19.348Z,13.68
2023-05-12T16:06:12.400Z,13.43
2023-05-12T16:23:45.940Z,13.16
2023-05-12T16:26:43.306Z,13.19
2023-05-12T16:38:37.362Z,13.46
2023-05-12T16:41:04.678Z,13.55
2023-05-12T16:43:32.177Z,13.75
2023-05-12T16:46:02.079Z,13.87
2023-05-12T16:48:34.111Z,13.67
2023-05-12T16:51:08.680Z,13.61
2023-05-12T16:53:36.151Z,13.45
2023-05-12T16:56:03.480Z,13.35
2023-05-12T16:58:31.514Z,13.33
2023-05-12T17:01:03.087Z,13.36
2023-05-12T17:03:30.518Z,13.45
2023-05-12T17:05:58.193Z,13.48
2023-05-12T17:08:25.596Z,13.56
2023-05-12T17:10:52.713Z,13.58
2023-05-12T17:13:19.977Z,13.52
2023-05-12T17:15:47.416Z,13.47
2023-05-12T17:18:14.622Z,13.41
2023-05-12T17:20:41.811Z,13.36
2023-05-12T17:23:09.247Z,13.37
2023-05-12T17:25:36.682Z,13.38
2023-05-12T17:28:04.552Z,13.37
2023-05-12T17:30:32.590Z,13.32
2023-05-12T17:33:00.462Z,13.31
2023-05-12T17:35:27.660Z,13.25
2023-05-12T17:37:55.558Z,13.17
2023-05-12T17:40:23.227Z,13.13
2023-05-12T17:42:50.551Z,13.17
2023-05-12T17:45:18.372Z,13.16
2023-05-12T17:47:46.088Z,13.13
2023-05-12T17:50:15.250Z,13.09
2023-05-12T17:52:43.750Z,13.04
2023-05-12T17:55:11.117Z,12.94
2023-05-12T17:57:38.529Z,12.89
2023-05-12T18:00:10.499Z,12.82
2023-05-12T18:02:44.677Z,12.82
2023-05-12T18:05:12.382Z,12.80
2023-05-12T18:07:39.720Z,12.77
2023-05-12T18:10:11.437Z,12.72
2023-05-12T18:12:39.467Z,12.67
2023-05-12T18:15:08.582Z,12.64
2023-05-12T18:17:36.056Z,12.62
2023-05-12T18:20:04.096Z,12.63
2023-05-12T18:22:31.305Z,12.61
2023-05-12T18:24:58.590Z,12.57
2023-05-12T18:27:25.849Z,12.54
2023-05-12T18:29:53.449Z,12.48
2023-05-12T18:32:20.575Z,12.49
2023-05-12T18:34:47.732Z,12.53
2023-05-12T18:37:17.163Z,12.50
2023-05-12T18:39:44.766Z,12.48
2023-05-12T18:42:12.122Z,12.47
2023-05-12T18:44:41.231Z,12.47
2023-05-12T18:47:09.006Z,12.45
2023-05-12T18:49:37.442Z,12.45
2023-05-12T18:52:05.199Z,12.48
2023-05-12T18:54:32.363Z,12.39
2023-05-12T18:56:59.514Z,11.95
2023-05-12T18:59:28.322Z,11.73
2023-05-12T19:01:56.221Z,11.67
2023-05-12T19:04:24.558Z,11.67
2023-05-12T19:06:51.685Z,11.68
2023-05-12T19:09:18.848Z,11.67
2023-05-12T19:11:46.017Z,11.65
2023-05-12T19:14:13.133Z,11.64
2023-05-12T19:16:42.297Z,11.60
2023-05-12T19:19:09.702Z,11.60
2023-05-12T19:21:37.053Z,11.54
2023-05-12T19:24:04.988Z,11.49
2023-05-12T19:26:32.244Z,11.48
2023-05-12T19:29:02.024Z,11.46
2023-05-12T19:31:31.540Z,11.41
2023-05-12T19:33:59.349Z,11.36
2023-05-12T19:36:29.267Z,11.36
2023-05-12T19:38:59.523Z,11.32
2023-05-12T19:41:29.561Z,11.37
2023-05-12T19:43:56.858Z,11.26
2023-05-12T19:46:24.172Z,11.16
2023-05-12T19:48:52.590Z,11.11
2023-05-12T19:51:19.863Z,11.04
2023-05-12T19:53:47.030Z,10.98
2023-05-12T19:56:14.249Z,10.90
2023-05-12T19:58:41.442Z,10.81
2023-05-12T20:01:08.739Z,10.78
2023-05-12T20:03:35.984Z,10.76
2023-05-12T20:06:04.457Z,10.69
2023-05-12T20:08:31.621Z,10.66
2023-05-12T20:10:58.852Z,10.64
2023-05-12T20:13:25.987Z,10.74
2023-05-12T20:15:54.616Z,10.72
2023-05-12T20:18:23.710Z,10.71
2023-05-12T20:20:51.306Z,10.70
2023-05-12T20:23:18.527Z,10.71
2023-05-12T20:25:45.927Z,10.72
2023-05-12T20:28:13.929Z,10.69
2023-05-12T20:30:41.442Z,10.70
2023-05-12T20:33:08.595Z,10.74
2023-05-12T20:35:35.820Z,10.80
2023-05-12T20:38:03.078Z,10.81
2023-05-12T20:40:30.243Z,10.83
2023-05-12T20:42:57.402Z,10.89
2023-05-12T20:45:24.756Z,10.89
2023-05-12T20:47:52.057Z,10.90
2023-05-12T20:50:19.536Z,10.88
2023-05-12T20:52:47.354Z,10.88
2023-05-12T20:55:14.589Z,10.89
2023-05-12T20:57:42.040Z,10.90
2023-05-12T21:00:11.149Z,10.94
2023-05-12T21:02:38.659Z,10.96
2023-05-12T21:05:06.773Z,10.94
2023-05-12T21:07:33.946Z,10.98
2023-05-12T21:10:01.503Z,11.01
2023-05-12T21:12:29.952Z,10.99
2023-05-12T21:14:57.163Z,10.98
2023-05-12T21:17:24.503Z,11.03
2023-05-12T21:19:51.886Z,11.05
2023-05-12T21:22:19.106Z,11.08
2023-05-12T21:24:46.316Z,11.09
2023-05-12T21:27:13.476Z,11.12
2023-05-12T21:29:40.602Z,11.10
2023-05-12T21:32:08.133Z,11.09
2023-05-12T21:34:36.110Z,11.05
2023-05-12T21:37:03.352Z,11.09
2023-05-12T21:39:30.472Z,11.06
2023-05-12T21:41:57.631Z,11.05
2023-05-12T21:44:24.861Z,11.04
2023-05-12T21:46:52.045Z,11.03
2023-05-12T21:49:19.243Z,11.02
2023-05-12T21:51:46.376Z,11.05
2023-05-12T21:54:13.584Z,11.08
2023-05-12T21:56:40.742Z,11.04
2023-05-12T21:59:07.928Z,11.00
2023-05-12T22:01:35.185Z,11.01
2023-05-12T22:04:02.576Z,11.04
2023-05-12T22:06:29.992Z,10.98
2023-05-12T22:08:57.256Z,10.97
2023-05-12T22:11:24.574Z,10.98
2023-05-12T22:13:51.732Z,10.98
2023-05-12T22:16:21.773Z,10.95
2023-05-12T22:18:53.021Z,10.90
2023-05-12T22:21:20.435Z,10.90
2023-05-12T22:23:47.666Z,10.88
2023-05-12T22:26:14.841Z,10.91
2023-05-12T22:28:42.585Z,10.94
2023-05-12T22:31:09.761Z,10.93
2023-05-12T22:33:36.927Z,10.89
2023-05-12T22:36:04.538Z,10.89
2023-05-12T22:38:31.781Z,10.92
2023-05-12T22:40:59.003Z,10.92
2023-05-12T22:43:26.272Z,10.96
2023-05-12T22:45:55.669Z,10.97
2023-05-12T22:48:23.758Z,10.95
2023-05-12T22:50:54.454Z,10.92
2023-05-12T22:53:21.662Z,10.89
2023-05-12T22:55:48.871Z,10.90
2023-05-12T22:58:16.103Z,10.89
2023-05-12T23:00:43.300Z,10.82
2023-05-12T23:03:10.669Z,10.80
2023-05-12T23:05:37.844Z,10.83
2023-05-12T23:08:05.565Z,10.81
2023-05-12T23:10:32.705Z,10.81
2023-05-12T23:12:59.854Z,10.88
2023-05-12T23:15:26.982Z,10.88
2023-05-12T23:17:54.202Z,10.88
2023-05-12T23:20:21.580Z,10.90
2023-05-12T23:22:48.887Z,10.83
2023-05-12T23:25:16.116Z,10.81
2023-05-12T23:27:43.260Z,10.81
2023-05-12T23:30:11.194Z,10.87
2023-05-12T23:32:38.421Z,10.86
2023-05-12T23:35:06.658Z,10.86
2023-05-12T23:37:33.857Z,10.86
2023-05-12T23:40:01.284Z,10.85
2023-05-12T23:42:28.598Z,10.84
2023-05-12T23:44:55.870Z,10.85
2023-05-12T23:47:23.129Z,10.86
2023-05-12T23:49:50.454Z,10.88
2023-05-12T23:52:17.741Z,10.88
2023-05-12T23:54:44.878Z,10.84
2023-05-12T23:57:12.137Z,10.81
2023-05-12T23:59:39.327Z,10.84
